Latest Weather Observations for Southern Cross Airport

IDW60801

Issued at 6:05 pm WST Monday 20 October 2014 (issued every 30 minutes, with the page automatically refreshed every 10 minutes)

About weather observations | Map of weather stations | Latest weather observations for WA | Other Formats
Station Details ID: 012320 Name: SOUTHERN CROSS AIRFIELD Lat: -31.24 Lon: 119.36 Height: 347.4 m
Data from the previous 72 hours. | See also: Recent months at Southern Cross Airport
Date/Time
WST
Temp
°C
App
Temp
°C
Dew
Point
Rel
Hum
%
Delta-T
°C
Wind Press
QNH
hPa
Press
MSL
hPa
Rain
since 9 am
mm
Dir
 
Spd
km/h
Gust
km/h
Spd
kts
Gust
kts
20/06:00pm 20.0 15.6 9.0 49 5.9 WSW 22 32 12 17 1017.9 1017.0 0.0
20/05:30pm 20.8 15.6 8.8 46 6.4 WSW 26 35 14 19 1017.4 1016.6 0.0
20/05:00pm 21.0 15.4 8.6 45 6.6 WSW 28 41 15 22 1017.1 1016.3 0.0
20/04:30pm 21.8 16.1 8.3 42 7.2 WSW 28 39 15 21 1016.6 1015.8 0.0
20/04:00pm 22.1 16.7 8.2 41 7.4 WSW 26 35 14 19 1016.2 1015.3 0.0
20/03:30pm 22.6 16.6 7.2 37 8.1 W 28 41 15 22 1015.9 1015.0 0.0
20/03:00pm 22.3 16.9 8.1 40 7.6 W 26 32 14 17 1015.9 1015.0 0.0
20/02:30pm 22.1 15.8 7.5 39 7.7 W 30 41 16 22 1015.8 1014.9 0.0
20/02:00pm 21.2 14.4 7.1 40 7.3 W 32 43 17 23 1016.0 1015.1 0.0
20/01:36pm 20.9 14.8 6.8 40 7.3 W 28 46 15 25 1015.9 1015.0 0.0
20/01:30pm 20.8 15.2 7.1 41 7.1 W 26 43 14 23 1016.0 1015.1 0.0
20/01:00pm 20.6 15.3 8.3 45 6.5 WNW 26 43 14 23 1016.0 1015.1 0.0
20/12:30pm 19.9 14.3 8.6 48 6.0 W 28 43 15 23 1016.1 1015.2 0.0
20/12:00pm 19.2 13.1 9.7 54 5.1 WNW 32 44 17 24 1016.4 1015.5 0.0
20/11:30am 18.1 12.5 10.0 59 4.4 W 30 39 16 21 1016.7 1015.9 0.0
20/11:00am 18.0 13.3 10.6 62 4.0 WNW 26 41 14 22 1016.6 1015.8 0.0
20/10:30am 16.6 11.9 10.5 67 3.3 WNW 26 35 14 19 1016.7 1015.9 0.0
20/10:00am 16.1 11.4 10.8 71 2.9 NW 26 32 14 17 1016.8 1016.0 0.0
20/09:30am 14.8 10.9 10.8 77 2.2 NW 22 32 12 17 1017.0 1016.2 0.0
20/09:00am 13.6 9.5 10.0 79 1.9 NW 22 32 12 17 1016.9 1016.1 7.4
20/08:30am 13.5 9.7 11.0 85 1.3 NW 22 30 12 16 1016.9 1016.1 7.4
20/08:00am 12.7 9.8 11.1 90 0.9 WNW 17 24 9 13 1016.8 1016.0 7.4
20/07:30am 11.9 8.7 10.1 89 0.9 WNW 17 20 9 11 1016.7 1015.9 7.4
20/07:00am 11.8 8.6 10.0 89 0.9 WNW 17 24 9 13 1016.2 1015.3 7.4
20/06:30am 10.7 6.9 9.8 94 0.5 WNW 20 26 11 14 1016.0 1015.1 7.4
20/06:00am 10.8 8.4 10.0 95 0.4 WNW 13 19 7 10 1015.9 1015.0 7.4
20/05:30am 10.5 8.7 9.6 94 0.5 WNW 9 13 5 7 1015.6 1014.7 7.4
20/05:00am 10.3 7.7 9.2 93 0.6 W 13 17 7 9 1014.8 1013.9 7.4
20/04:30am 10.4 8.6 9.3 93 0.6 WNW 9 15 5 8 1014.3 1013.5 7.4
20/04:00am 10.6 8.0 9.4 92 0.6 W 13 19 7 10 1014.1 1013.3 7.4
20/03:30am 10.9 8.0 9.8 93 0.6 W 15 22 8 12 1013.9 1013.0 7.4
20/03:00am 11.6 9.3 10.5 93 0.6 W 13 17 7 9 1013.6 1012.7 7.4
20/02:30am 11.8 10.0 10.7 93 0.6 WNW 11 19 6 10 1013.3 1012.4 7.4
20/02:00am 11.9 9.3 10.6 92 0.7 W 15 19 8 10 1013.2 1012.3 7.4
20/01:30am 12.3 10.9 10.9 91 0.7 NW 9 13 5 7 1013.2 1012.3 7.4
20/01:00am 12.1 11.0 10.8 92 0.7 WSW 7 13 4 7 1013.2 1012.3 7.4
20/12:30am 11.7 10.8 10.6 93 0.6 WSW 6 7 3 4 1013.3 1012.4 7.4
20/12:00am 11.8 10.3 10.7 93 0.6 WSW 9 11 5 6 1013.5 1012.6 7.4
 
Date/Time
WST
Temp
°C
App
Temp
°C
Dew
Point
Rel
Hum
%
Delta-T
°C
Wind Press
QNH
hPa
Press
MSL
hPa
Rain
since 9 am
mm
Dir
 
Spd
km/h
Gust
km/h
Spd
kts
Gust
kts
19/11:30pm 11.7 10.2 10.6 93 0.6 W 9 11 5 6 1013.6 1012.7 7.4
19/11:00pm 12.1 10.3 11.0 93 0.6 NW 11 13 6 7 1013.7 1012.8 7.2
19/10:30pm 12.6 10.5 11.3 92 0.7 NW 13 15 7 8 1014.0 1013.2 7.2
19/10:00pm 12.8 11.2 11.4 91 0.8 NW 11 13 6 7 1014.3 1013.5 7.2
19/09:30pm 13.1 11.2 11.7 91 0.8 WNW 13 17 7 9 1013.8 1012.9 7.2
19/09:00pm 13.1 11.2 11.7 91 0.8 NNW 13 17 7 9 1013.4 1012.5 7.2
19/08:30pm 13.3 11.5 12.0 92 0.7 NNW 13 17 7 9 1013.3 1012.4 7.2
19/08:00pm 13.3 12.2 12.0 92 0.7 N 9 13 5 7 1013.1 1012.2 7.2
19/07:30pm 13.7 11.9 12.1 90 0.9 N 13 20 7 11 1013.2 1012.3 7.2
19/07:00pm 13.7 10.0 11.4 86 1.2 N 22 32 12 17 1013.5 1012.6 6.2
19/06:30pm 14.6 9.8 11.7 83 1.6 N 28 37 15 20 1013.0 1012.1 6.2
19/06:00pm 15.5 12.3 11.1 75 2.4 N 19 24 10 13 1012.6 1011.7 5.8
19/05:30pm 14.8 13.0 10.8 77 2.2 N 11 19 6 10 1012.1 1011.2 5.8
19/05:00pm 15.5 12.1 10.7 73 2.6 N 19 33 10 18 1011.4 1010.5 5.8
19/04:30pm 14.8 11.1 10.0 73 2.5 N 20 26 11 14 1010.9 1010.0 5.8
19/04:06pm 15.0 7.3 8.7 66 3.3 NNW 39 85 21 46 1011.0 1010.1 0.8
19/04:00pm 20.5 14.7 11.4 56 5.1 NNW 33 85 18 46 1010.0 1009.1 0.2
19/03:59pm 20.6 14.7 11.2 55 5.3 NNW 33 85 18 46 1009.4 1008.5 0.2
19/03:30pm 21.1 18.4 11.7 55 5.3 NNE 17 24 9 13 1009.4 1008.5 0.2
19/03:00pm 20.5 18.5 11.4 56 5.1 N 13 20 7 11 1009.6 1008.7 0.2
19/02:30pm 20.6 18.5 11.0 54 5.4 NNW 13 20 7 11 1009.8 1008.9 0.2
19/02:00pm 20.3 17.2 11.5 57 5.0 WNW 19 22 10 12 1010.1 1009.2 0.2
19/01:30pm 19.4 17.8 12.7 65 3.8 ENE 13 19 7 10 1009.2 1008.3 0.2
19/01:00pm 19.5 16.6 11.0 58 4.7 NNW 17 24 9 13 1010.9 1010.0 0.0
19/12:30pm 19.2 17.3 11.7 62 4.2 N 13 19 7 10 1011.1 1010.2 0.0
19/12:00pm 19.5 17.4 12.3 63 4.1 NW 15 22 8 12 1011.6 1010.7 0.0
19/11:30am 19.1 16.2 12.4 65 3.8 NNW 19 20 10 11 1012.0 1011.1 0.0
19/11:00am 18.6 16.0 11.9 65 3.8 NE 17 24 9 13 1012.3 1011.4 0.0
19/10:30am 18.0 17.0 13.5 75 2.6 E 11 17 6 9 1012.4 1011.5 0.0
19/10:00am 16.6 14.3 12.9 79 2.1 SSE 17 20 9 11 1012.9 1012.0 0.0
19/09:30am 15.2 12.0 12.0 81 1.8 SE 20 30 11 16 1013.2 1012.3 0.0
19/09:00am 14.9 10.6 12.0 83 1.6 SE 26 32 14 17 1012.6 1011.7 3.4
19/08:30am 14.3 11.1 12.0 86 1.3 SE 20 30 11 16 1013.3 1012.4 3.4
19/08:00am 13.6 10.3 11.5 87 1.1 SE 20 26 11 14 1013.6 1012.7 3.4
19/07:30am 13.1 9.9 11.3 89 1.0 SSE 19 24 10 13 1013.8 1012.9 3.4
19/07:00am 13.1 9.9 11.8 92 0.7 SSE 20 26 11 14 1013.7 1012.8 3.4
19/06:30am 12.6 9.4 11.3 92 0.7 S 19 26 10 14 1014.3 1013.5 3.4
19/06:00am 12.6 9.5 11.7 94 0.5 SSW 19 24 10 13 1014.4 1013.6 3.4
19/05:30am 12.5 9.7 11.2 92 0.7 SW 17 19 9 10 1013.7 1012.8 3.4
19/05:20am 12.5 6.2 11.1 91 0.7 ESE 35 43 19 23 1012.5 1011.6 2.8
19/05:00am 13.6 10.2 10.6 82 1.6 S 19 24 10 13 1013.7 1012.8 0.0
19/04:30am 13.8 10.4 10.4 80 1.8 S 19 22 10 12 1013.3 1012.4 0.0
19/04:00am 13.5 10.5 10.5 82 1.6 ESE 17 26 9 14 1012.8 1011.9 0.0
19/03:30am 13.4 9.4 10.6 83 1.5 ESE 22 33 12 18 1012.4 1011.5 0.0
19/03:00am 13.4 9.8 10.6 83 1.5 ESE 20 32 11 17 1012.3 1011.4 0.0
19/02:30am 13.3 9.9 10.5 83 1.5 E 19 28 10 15 1012.8 1011.9 0.0
19/02:00am 13.5 9.5 10.3 81 1.7 ESE 22 32 12 17 1012.5 1011.6 0.0
19/01:30am 13.8 7.8 10.0 78 2.0 E 32 46 17 25 1012.9 1012.0 0.0
19/01:08am 14.1 8.8 9.7 75 2.3 E 28 48 15 26 1013.6 1012.7 0.0
19/01:00am 14.2 8.8 9.6 74 2.4 ESE 28 41 15 22 1013.5 1012.6 0.0
19/12:30am 14.3 9.6 9.3 72 2.6 ESE 24 37 13 20 1014.0 1013.2 0.0
19/12:00am 14.6 8.7 9.2 70 2.8 SE 30 44 16 24 1014.5 1013.7 0.0
 
Date/Time
WST
Temp
°C
App
Temp
°C
Dew
Point
Rel
Hum
%
Delta-T
°C
Wind Press
QNH
hPa
Press
MSL
hPa
Rain
since 9 am
mm
Dir
 
Spd
km/h
Gust
km/h
Spd
kts
Gust
kts
18/11:30pm 14.8 8.6 9.4 70 2.8 SE 32 46 17 25 1014.5 1013.7 0.0
18/11:00pm 14.9 8.5 9.3 69 2.9 SE 33 48 18 26 1015.0 1014.1 0.0
18/10:30pm 15.2 8.9 8.9 66 3.3 SSE 32 39 17 21 1015.6 1014.7 0.0
18/10:00pm 15.4 10.5 8.6 64 3.5 SSE 24 35 13 19 1015.8 1014.9 0.0
18/09:31pm 15.4 9.7 8.4 63 3.6 ESE 28 46 15 25 1014.9 1014.0 0.0
18/09:30pm 15.4 9.7 8.4 63 3.6 ESE 28 43 15 23 1014.9 1014.0 0.0
18/09:03pm 15.7 7.2 8.7 63 3.6 SE 43 61 23 33 1014.8 1013.9 0.0
18/09:00pm 15.8 8.5 8.8 63 3.6 SE 37 50 20 27 1014.8 1013.9 0.0
18/08:48pm 15.9 10.0 9.1 64 3.6 ESE 30 48 16 26 1014.9 1014.0 0.0
18/08:30pm 16.0 8.8 9.2 64 3.6 ESE 37 52 20 28 1014.3 1013.5 0.0
18/08:00pm 16.4 8.9 9.6 64 3.6 ESE 39 57 21 31 1013.9 1013.0 0.0
18/07:54pm 16.6 9.1 9.5 63 3.8 SE 39 57 21 31 1013.9 1013.0 0.0
18/07:30pm 17.1 9.7 9.8 62 3.9 SE 39 50 21 27 1013.8 1012.9 0.0
18/07:00pm 18.3 11.3 9.9 58 4.5 SE 37 46 20 25 1012.9 1012.0 0.0
18/06:30pm 19.5 12.5 10.0 54 5.2 SE 37 48 20 26 1012.5 1011.6 0.0
18/06:00pm 21.1 13.9 10.6 51 5.8 SE 39 48 21 26 1011.1 1010.2 0.0
18/05:30pm 23.0 16.7 11.1 47 6.7 SE 35 43 19 23 1010.3 1009.4 0.0
18/05:00pm 23.9 17.4 11.6 46 7.1 S 37 48 20 26 1009.6 1008.7 0.0
18/04:30pm 24.8 18.7 11.7 44 7.5 S 35 43 19 23 1009.6 1008.7 0.0
18/04:00pm 25.4 20.0 12.3 44 7.7 S 32 41 17 22 1009.2 1008.3 0.0
18/03:30pm 25.8 20.0 12.6 44 7.8 S 35 46 19 25 1008.4 1007.5 0.0
18/03:00pm 26.8 22.2 12.4 40 8.5 S 28 37 15 20 1008.2 1007.3 0.0
18/02:30pm 26.4 21.5 12.5 42 8.2 S 30 39 16 21 1008.6 1007.6 0.0
18/02:19pm 26.3 21.2 13.1 44 7.8 SSW 32 43 17 23 1008.4 1007.5 0.0
18/02:00pm 27.3 24.3 12.1 39 8.9 SSE 19 24 10 13 1008.6 1007.6 0.0
18/01:36pm 30.7 23.8 4.4 19 13.8 NW 30 50 16 27 1008.3 1007.4 0.0
18/01:30pm 30.5 24.2 5.7 21 13.3 WNW 28 43 15 23 1008.3 1007.4 0.0
18/01:00pm 29.4 22.7 5.5 22 12.7 NW 30 46 16 25 1008.7 1007.7 0.0
18/12:49pm 29.6 23.1 6.3 23 12.6 NNW 30 50 16 27 1008.8 1007.8 0.0
18/12:30pm 29.1 22.7 8.7 28 11.4 NNW 32 41 17 22 1009.1 1008.2 0.0
18/12:00pm 28.4 21.8 10.1 32 10.5 NNW 35 54 19 29 1009.3 1008.4 0.0
18/11:53am 29.2 23.0 11.3 33 10.4 NNW 35 54 19 29 1009.5 1008.6 0.0
18/11:30am 28.6 22.6 12.1 36 9.7 NNW 35 46 19 25 1009.6 1008.7 0.0
18/11:00am 26.9 20.7 12.5 40 8.5 NNW 37 52 20 28 1010.1 1009.2 0.0
18/10:30am 26.6 22.3 15.3 50 7.0 NNW 32 43 17 23 1010.3 1009.4 0.0
18/10:00am 24.7 19.6 14.8 54 6.0 NNW 35 46 19 25 1010.5 1009.6 0.0
18/09:30am 23.8 18.5 15.3 59 5.2 NNW 37 48 20 26 1010.7 1009.8 0.0
18/09:00am 22.8 18.5 15.9 65 4.2 N 33 46 18 25 1010.9 1010.0 4.8
18/08:30am 21.2 17.4 15.7 71 3.3 N 30 41 16 22 1011.3 1010.4 4.8
18/08:00am 20.2 15.9 15.4 74 2.9 N 32 46 17 25 1011.6 1010.7 4.8
18/07:30am 19.4 15.4 15.3 77 2.5 N 30 41 16 22 1011.6 1010.7 4.8
18/07:00am 18.4 15.5 15.1 81 2.0 NNE 24 33 13 18 1011.6 1010.7 4.8
18/06:30am 17.7 15.6 15.1 85 1.5 NNE 20 32 11 17 1011.7 1010.8 4.8
18/06:00am 17.1 14.8 14.7 86 1.4 NNE 20 30 11 16 1011.9 1011.0 4.8
18/05:30am 17.0 14.7 14.6 86 1.4 NNE 20 30 11 16 1011.6 1010.7 4.8
18/05:00am 17.0 14.3 14.6 86 1.4 NNE 22 30 12 16 1011.6 1010.7 4.8
18/04:30am 17.1 13.4 14.9 87 1.3 NNE 28 39 15 21 1011.4 1010.5 4.8
18/04:00am 17.0 12.4 15.2 89 1.1 NNE 33 48 18 26 1011.2 1010.3 4.8
18/03:50am 16.8 11.8 15.0 89 1.1 NE 35 54 19 29 1010.3 1009.4 4.6
18/03:30am 17.3 13.8 14.4 83 1.7 NNE 26 35 14 19 1012.0 1011.1 4.2
18/03:00am 17.0 12.4 14.5 85 1.5 NE 32 41 17 22 1011.9 1011.0 4.2
18/02:30am 17.1 12.3 14.6 85 1.5 NE 33 43 18 23 1011.1 1010.2 4.2
18/02:00am 17.2 12.6 14.5 84 1.6 NNE 32 46 17 25 1010.8 1009.9 4.2
18/01:30am 17.1 11.7 14.9 87 1.3 NE 37 44 20 24 1009.5 1008.6 4.2
18/01:00am 17.0 10.9 15.3 90 1.0 ENE 41 54 22 29 1008.4 1007.5 4.0
18/12:48am 17.4 11.4 15.4 88 1.2 NNE 41 56 22 30 1011.1 1010.2 3.2
18/12:30am 18.2 14.5 14.9 81 1.9 N 28 39 15 21 1013.3 1012.4 1.2
18/12:00am 19.8 17.3 14.2 70 3.3 NNE 20 28 11 15 1012.5 1011.6 0.2
 
Date/Time
WST
Temp
°C
App
Temp
°C
Dew
Point
Rel
Hum
%
Delta-T
°C
Wind Press
QNH
hPa
Press
MSL
hPa
Rain
since 9 am
mm
Dir
 
Spd
km/h
Gust
km/h
Spd
kts
Gust
kts
17/11:30pm 22.3 19.1 11.4 50 6.2 N 19 24 10 13 1012.7 1011.8 0.0
17/11:00pm 23.0 20.0 10.8 46 6.9 N 17 24 9 13 1012.8 1011.9 0.0
17/10:30pm 23.0 20.3 10.4 45 7.0 N 15 20 8 11 1013.0 1012.1 0.0
17/10:00pm 22.8 21.3 10.6 46 6.8 N 9 13 5 7 1011.8 1010.9 0.0
17/09:30pm 23.2 21.7 10.6 45 7.1 ENE 9 11 5 6 1011.4 1010.5 0.0
17/09:00pm 23.7 21.1 10.7 44 7.3 N 15 19 8 10 1012.6 1011.7 0.0
17/08:30pm 25.7 22.6 3.6 24 11.1 E 9 13 5 7 1012.9 1012.0 0.0
17/08:00pm 25.6 22.9 7.2 31 9.9 E 11 19 6 10 1012.2 1011.3 0.0
17/07:30pm 25.8 22.3 1.2 20 11.8 ESE 9 13 5 7 1011.8 1010.9 0.0
17/07:00pm 26.8 23.3 1.3 19 12.4 S 9 11 5 6 1012.0 1011.1 0.0
17/06:30pm 27.4 23.1 1.0 18 12.8 SSE 13 15 7 8 1011.2 1010.3 0.0

Other Formats:

Comma delimited format used in spreadsheet applications
http://www.bom.gov.au/fwo/IDW60801/IDW60801.95634.axf

JavaScript Object Notation format (JSON) in row-major order
http://www.bom.gov.au/fwo/IDW60801/IDW60801.95634.json